Terminal Aerodrome Forecast
Issued by NWS

Home | Current Version | Previous Version | Text Only | Print | Product List | Glossary On
Versions: 1 2 3 4 5 6 7 8 9 10 11 12 13 14 15 16 17 18
000
FTUS41 KGYX 232320
TAFLEB
TAF
KLEB 232320Z 2400/2424 20007KT P6SM BKN030
     FM240600 19009KT 4SM BR VCSH OVC015
      TEMPO 2407/2411 3/4SM -DZ BR OVC007
     FM241100 18010KT 1 1/2SM -DZ BR OVC015 PROB30 2411/2414 3/4SM
      -SHRA BR OVC007
     FM241400 18010KT 3SM -SHRA OVC015
     FM242100 17010G18KT 4SM -SHRA OVC015 WS020/17040KT=

USA.gov is the U.S. government's official web portal to all federal, state and local government web resources and services.